Time;durP1;ratioP1;P1;durP2;ratioP2;P2;SDS_P1;SDS_P2;PMS_P1;PMS_P2;Temp;Humidity;BMP_temperature;BMP_pressure;BME280_temperature;BME280_humidity;BME280_pressure;Samples;Min_cycle;Max_cycle;Signal;HPM_P1;HPM_P2
2023/05/18 00:00:04;;;;;;;;;;;;;;;;;;;;;
2023/05/18 00:12:17;;;;;;;1999.90;999.90;;;;;;;;;;5745443;24;20816;-72
2023/05/18 00:18:35;;;;;;;1999.90;999.90;;;;;;;;;;5629028;25;20409;-72
2023/05/18 00:21:32;;;;;;;1999.90;999.90;;;;;;;;;;5615345;25;20078;-72
2023/05/18 00:27:51;;;;;;;;;;;;;;;;;;;;;
2023/05/18 00:36:40;;;;;;;1999.90;999.90;;;;;;;;;;5652512;25;20021;-69
2023/05/18 00:39:11;;;;;;;1999.90;999.90;;;;;;;;;;5651787;25;20112;-69
2023/05/18 00:45:15;;;;;;;1999.90;999.90;;;;;;;;;;5713568;24;20027;-68
2023/05/18 00:51:05;;;;;;;1999.90;999.90;;;;;;;;;;5697620;24;20223;-73
2023/05/18 00:57:23;;;;;;;1999.90;999.90;;;;;;;;;;5819079;24;20026;-70
2023/05/18 01:19:34;;;;;;;1999.90;999.90;;;;;;;;;;5556379;25;20023;-73
2023/05/18 01:25:23;;;;;;;1999.90;999.90;;;;;;;;;;5590817;25;20022;-74
2023/05/18 01:31:23;;;;;;;;;;;;;;;;;;;;;
2023/05/18 01:37:22;;;;;;;1999.90;999.90;;;;;;;;;;5678393;25;20552;-72
2023/05/18 01:43:17;;;;;;;1999.90;999.90;;;;;;;;;;5763732;24;20021;-76
2023/05/18 01:45:57;;;;;;;1999.90;999.90;;;;;;;;;;5863758;23;20351;-73
2023/05/18 01:51:20;;;;;;;1999.90;999.90;;;;;;;;;;6012070;23;20423;-73
2023/05/18 01:54:03;;;;;;;1999.90;999.90;;;;;;;;;;5988488;23;20721;-72
2023/05/18 01:56:31;;;;;;;1999.90;999.90;;;;;;;;;;6101812;23;20024;-69
2023/05/18 01:58:59;;;;;;;1999.90;999.90;;;;;;;;;;6127341;23;20367;-72
2023/05/18 02:01:26;;;;;;;1999.90;999.90;;;;;;;;;;6127785;23;20344;-71
2023/05/18 02:04:08;;;;;;;1999.90;999.90;;;;;;;;;;6129640;23;20002;-75
2023/05/18 02:06:39;;;;;;;1999.90;999.90;;;;;;;;;;6128628;23;20105;-71
2023/05/18 02:09:12;;;;;;;1999.90;999.90;;;;;;;;;;6126865;23;20344;-71
2023/05/18 02:14:50;;;;;;;1999.90;999.90;;;;;;;;;;6039452;23;20011;-74
2023/05/18 02:17:21;;;;;;;1999.90;999.90;;;;;;;;;;6127208;23;20016;-72
2023/05/18 02:19:48;;;;;;;1999.90;999.90;;;;;;;;;;6127389;23;20017;-73
2023/05/18 02:22:20;;;;;;;1999.90;999.90;;;;;;;;;;6130013;23;20037;-72
2023/05/18 02:28:13;;;;;;;;;;;;;;;;;;;;;
2023/05/18 02:31:11;;;;;;;1999.90;999.90;;;;;;;;;;6011179;23;20092;-72
2023/05/18 02:34:40;;;;;;;;;;;;;;;;;;;;;
2023/05/18 02:36:56;;;;;;;1999.90;999.90;;;;;;;;;;5913406;24;20017;-72
2023/05/18 02:42:40;;;;;;;1999.90;999.90;;;;;;;;;;5927232;24;20138;-73
2023/05/18 02:45:07;;;;;;;1999.90;999.90;;;;;;;;;;5922812;24;20034;-72
2023/05/18 02:47:34;;;;;;;1999.90;999.90;;;;;;;;;;5903680;24;20045;-72
2023/05/18 02:50:13;;;;;;;1999.90;999.90;;;;;;;;;;5904757;24;20009;-72
2023/05/18 02:52:48;;;;;;;1999.90;999.90;;;;;;;;;;5924094;24;20053;-72
2023/05/18 02:55:20;;;;;;;1999.90;999.90;;;;;;;;;;5905356;24;20068;-74
2023/05/18 03:06:37;;;;;;;1999.90;999.90;;;;;;;;;;5920147;24;20038;-74
2023/05/18 03:09:18;;;;;;;1999.90;999.90;;;;;;;;;;5954110;24;20013;-72
2023/05/18 03:11:52;;;;;;;1999.90;999.90;;;;;;;;;;6035638;23;20003;-74
2023/05/18 03:14:28;;;;;;;1999.90;999.90;;;;;;;;;;6013827;23;20019;-75
2023/05/18 03:17:25;;;;;;;1999.90;999.90;;;;;;;;;;6039682;23;20071;-67
2023/05/18 03:20:10;;;;;;;1999.90;999.90;;;;;;;;;;6037373;23;20103;-72
2023/05/18 03:26:19;;;;;;;;;;;;;;;;;;;;;
2023/05/18 03:29:21;;;;;;;1999.90;999.90;;;;;;;;;;5886395;24;20099;-66
2023/05/18 03:32:30;;;;;;;;;;;;;;;;;;;;;
2023/05/18 03:35:17;;;;;;;1999.90;999.90;;;;;;;;;;5873214;24;20076;-72
2023/05/18 03:37:47;;;;;;;1999.90;999.90;;;;;;;;;;5872874;24;20084;-72
2023/05/18 03:40:15;;;;;;;1999.90;999.90;;;;;;;;;;5872366;24;20014;-72
2023/05/18 03:42:42;;;;;;;1999.90;999.90;;;;;;;;;;5872735;24;20089;-73
2023/05/18 03:45:51;;;;;;;;;;;;;;;;;;;;;
2023/05/18 03:48:39;;;;;;;1999.90;999.90;;;;;;;;;;5749395;24;20384;-72
2023/05/18 03:51:06;;;;;;;1999.90;999.90;;;;;;;;;;5792670;24;20416;-72
2023/05/18 03:54:11;;;;;;;1999.90;999.90;;;;;;;;;;5793623;24;20036;-74
2023/05/18 03:56:44;;;;;;;1999.90;999.90;;;;;;;;;;5789463;24;20076;-69
2023/05/18 03:59:41;;;;;;;1999.90;999.90;;;;;;;;;;5793497;24;20359;-73
2023/05/18 04:02:11;;;;;;;1999.90;999.90;;;;;;;;;;5798349;24;20019;-70
2023/05/18 04:04:44;;;;;;;1999.90;999.90;;;;;;;;;;5787220;24;20361;-71
2023/05/18 04:07:22;;;;;;;1999.90;999.90;;;;;;;;;;5903534;24;20104;-70
2023/05/18 04:09:50;;;;;;;1999.90;999.90;;;;;;;;;;5928020;24;20013;-71
2023/05/18 04:12:20;;;;;;;1999.90;999.90;;;;;;;;;;6011238;23;20381;-69
2023/05/18 04:17:52;;;;;;;1999.90;999.90;;;;;;;;;;6064769;23;20062;-74
2023/05/18 04:20:27;;;;;;;1999.90;999.90;;;;;;;;;;6067992;23;20007;-68
2023/05/18 04:26:06;;;;;;;1999.90;999.90;;;;;;;;;;6038473;23;20048;-73
2023/05/18 04:28:42;;;;;;;1999.90;999.90;;;;;;;;;;5981812;24;20091;-72
2023/05/18 04:34:23;;;;;;;1999.90;999.90;;;;;;;;;;5926085;24;20017;-72
2023/05/18 04:37:27;;;;;;;1999.90;999.90;;;;;;;;;;5959024;24;20020;-72
2023/05/18 04:40:26;;;;;;;1999.90;999.90;;;;;;;;;;5982417;24;20049;-72
2023/05/18 04:42:56;;;;;;;1999.90;999.90;;;;;;;;;;5903899;24;20021;-72
2023/05/18 04:45:25;;;;;;;1999.90;999.90;;;;;;;;;;5858657;24;20040;-72
2023/05/18 04:48:17;;;;;;;1999.90;999.90;;;;;;;;;;5904260;24;20073;-74
2023/05/18 05:00:24;;;;;;;;;;;;;;;;;;;;;
2023/05/18 05:03:27;;;;;;;1999.90;999.90;;;;;;;;;;5826084;24;20062;-72
2023/05/18 05:09:43;;;;;;;1999.90;999.90;;;;;;;;;;5928660;24;20069;-74
2023/05/18 05:12:09;;;;;;;1999.90;999.90;;;;;;;;;;5927963;24;20013;-72
2023/05/18 05:15:02;;;;;;;1999.90;999.90;;;;;;;;;;5927339;24;20065;-65
2023/05/18 05:27:28;;;;;;;1999.90;999.90;;;;;;;;;;5872138;24;20045;-70
2023/05/18 05:30:34;;;;;;;1999.90;999.90;;;;;;;;;;5872381;24;20362;-74
2023/05/18 05:40:02;;;;;;;;;;;;;;;;;;;;;
2023/05/18 05:46:04;;;;;;;1999.90;999.90;;;;;;;;;;5873665;24;20057;-70
2023/05/18 05:48:51;;;;;;;1999.90;999.90;;;;;;;;;;5828003;24;20017;-74
2023/05/18 05:51:24;;;;;;;1999.90;999.90;;;;;;;;;;5847597;24;20016;-75
2023/05/18 05:57:14;;;;;;;;;;;;;;;;;;;;;
2023/05/18 06:00:19;;;;;;;;;;;;;;;;;;;;;
2023/05/18 06:12:57;;;;;;;;;;;;;;;;;;;;;
2023/05/18 06:18:41;;;;;;;1999.90;999.90;;;;;;;;;;5764542;24;20022;-71
2023/05/18 06:24:29;;;;;;;1999.90;999.90;;;;;;;;;;5789744;24;20038;-64
2023/05/18 06:39:24;;;;;;;1999.90;999.90;;;;;;;;;;5791363;24;20028;-70
2023/05/18 06:41:57;;;;;;;1999.90;999.90;;;;;;;;;;5791690;24;20015;-70
2023/05/18 06:57:51;;;;;;;1999.90;999.90;;;;;;;;;;5816973;24;20037;-70
2023/05/18 07:06:45;;;;;;;;;;;;;;;;;;;;;
2023/05/18 07:09:48;;;;;;;;;;;;;;;;;;;;;
2023/05/18 07:12:36;;;;;;;1999.90;999.90;;;;;;;;;;5819510;24;20284;-70
2023/05/18 07:15:18;;;;;;;1999.90;999.90;;;;;;;;;;5820305;24;20046;-71
2023/05/18 07:21:03;;;;;;;1999.90;999.90;;;;;;;;;;5819361;24;20147;-66
2023/05/18 07:27:15;;;;;;;1999.90;999.90;;;;;;;;;;5793805;24;20022;-70
2023/05/18 07:30:03;;;;;;;1999.90;999.90;;;;;;;;;;5794770;24;20445;-66
2023/05/18 07:32:50;;;;;;;1999.90;999.90;;;;;;;;;;5768956;24;20012;-69
2023/05/18 07:35:47;;;;;;;1999.90;999.90;;;;;;;;;;5767341;24;20023;-68
2023/05/18 07:38:14;;;;;;;1999.90;999.90;;;;;;;;;;5786922;24;20011;-69
2023/05/18 07:40:50;;;;;;;1999.90;999.90;;;;;;;;;;5793798;24;20448;-67
2023/05/18 07:43:16;;;;;;;1999.90;999.90;;;;;;;;;;5851834;24;20180;-66
2023/05/18 07:45:43;;;;;;;1999.90;999.90;;;;;;;;;;5927643;24;20341;-67
2023/05/18 07:48:09;;;;;;;1999.90;999.90;;;;;;;;;;5927571;24;20401;-71
2023/05/18 07:50:39;;;;;;;1999.90;999.90;;;;;;;;;;6004003;23;20012;-70
2023/05/18 07:53:08;;;;;;;1999.90;999.90;;;;;;;;;;5988346;23;20344;-68
2023/05/18 07:55:35;;;;;;;1999.90;999.90;;;;;;;;;;5988047;23;20017;-70
2023/05/18 07:58:01;;;;;;;1999.90;999.90;;;;;;;;;;6013027;23;20368;-70
2023/05/18 08:00:31;;;;;;;1999.90;999.90;;;;;;;;;;6011700;23;20062;-70
2023/05/18 08:02:59;;;;;;;1999.90;999.90;;;;;;;;;;6011849;23;20015;-70
2023/05/18 08:05:26;;;;;;;1999.90;999.90;;;;;;;;;;5987133;23;20405;-71
2023/05/18 08:07:58;;;;;;;1999.90;999.90;;;;;;;;;;6012044;23;20044;-71
2023/05/18 08:10:25;;;;;;;1999.90;999.90;;;;;;;;;;6082970;23;20006;-71
2023/05/18 08:12:55;;;;;;;1999.90;999.90;;;;;;;;;;6099518;23;20010;-69
2023/05/18 08:15:27;;;;;;;1999.90;999.90;;;;;;;;;;6099087;23;20456;-70
2023/05/18 08:17:53;;;;;;;;;;;;;;;;;;6099029;23;20340;-70
2023/05/18 08:20:24;;;;;;;1999.90;999.90;;;;;;;;;;6098430;23;19976;-69
2023/05/18 08:22:56;;;;;;;1999.90;999.90;;;;;;;;;;6095802;23;20427;-69
2023/05/18 08:32:15;;;;;;;1999.90;999.90;;;;;;;;;;5926805;24;20410;-70
2023/05/18 08:48:02;;;;;;;1999.90;999.90;;;;;;;;;;5793655;24;20492;-71
2023/05/18 08:51:01;;;;;;;1999.90;999.90;;;;;;;;;;5816760;24;20467;-69
2023/05/18 08:53:37;;;;;;;1999.90;999.90;;;;;;;;;;5819965;24;20015;-69
2023/05/18 08:56:34;;;;;;;1999.90;999.90;;;;;;;;;;5843898;24;20033;-64
2023/05/18 08:59:09;;;;;;;1999.90;999.90;;;;;;;;;;5822676;24;20018;-70
2023/05/18 09:01:40;;;;;;;1999.90;999.90;;;;;;;;;;5844052;24;20524;-70
2023/05/18 09:04:07;;;;;;;1999.90;999.90;;;;;;;;;;5843968;24;20296;-68
2023/05/18 09:06:41;;;;;;;1999.90;999.90;;;;;;;;;;5841092;24;20030;-68
2023/05/18 09:09:34;;;;;;;1999.90;999.90;;;;;;;;;;5961214;23;20436;-68
2023/05/18 09:12:35;;;;;;;1999.90;999.90;;;;;;;;;;6031289;23;20026;-69
2023/05/18 09:20:45;;;;;;;1999.90;999.90;;;;;;;;;;6007645;23;20019;-68
2023/05/18 09:23:37;;;;;;;;;;;;;;;;;;;;;
2023/05/18 09:26:26;;;;;;;1999.90;999.90;;;;;;;;;;6046237;23;20114;-68
2023/05/18 09:29:36;;;;;;;;;;;;;;;;;;;;;
2023/05/18 09:32:35;;;;;;;1999.90;999.90;;;;;;;;;;5980556;24;20069;-69
2023/05/18 09:38:10;;;;;;;1999.90;999.90;;;;;;;;;;5980215;24;20091;-69
2023/05/18 09:40:52;;;;;;;1999.90;999.90;;;;;;;;;;5980254;24;20087;-69
2023/05/18 09:43:21;;;;;;;1999.90;999.90;;;;;;;;;;5980441;24;20012;-70
2023/05/18 09:45:48;;;;;;;1999.90;999.90;;;;;;;;;;5980931;24;20020;-66
2023/05/18 09:48:18;;;;;;;1999.90;999.90;;;;;;;;;;5980113;24;20035;-69
2023/05/18 09:50:53;;;;;;;1999.90;999.90;;;;;;;;;;5955874;24;20404;-68
2023/05/18 09:53:41;;;;;;;1999.90;999.90;;;;;;;;;;5977837;24;20016;-68
2023/05/18 09:56:17;;;;;;;1999.90;999.90;;;;;;;;;;6002720;23;20047;-68
2023/05/18 09:58:53;;;;;;;1999.90;999.90;;;;;;;;;;5984919;23;20007;-70
2023/05/18 10:01:47;;;;;;;1999.90;999.90;;;;;;;;;;5985358;23;20333;-71
2023/05/18 10:10:23;;;;;;;1999.90;999.90;;;;;;;;;;6009865;23;20447;-71
2023/05/18 10:13:07;;;;;;;1999.90;999.90;;;;;;;;;;6009558;23;20091;-69
2023/05/18 10:28:03;;;;;;;1999.90;999.90;;;;;;;;;;6008936;23;20483;-75
2023/05/18 10:31:03;;;;;;;;;;;;;;;;;;;;;
2023/05/18 10:43:26;;;;;;;1999.90;999.90;;;;;;;;;;5908657;24;20025;-69
2023/05/18 10:45:58;;;;;;;1999.90;999.90;;;;;;;;;;5924118;24;20279;-70
2023/05/18 10:48:25;;;;;;;1999.90;999.90;;;;;;;;;;5925359;24;20031;-68
2023/05/18 10:50:54;;;;;;;1999.90;999.90;;;;;;;;;;5925257;24;20017;-70
2023/05/18 10:53:25;;;;;;;1999.90;999.90;;;;;;;;;;5925056;24;20009;-64
2023/05/18 10:55:52;;;;;;;1999.90;999.90;;;;;;;;;;5943873;24;20021;-72
2023/05/18 10:58:20;;;;;;;1999.90;999.90;;;;;;;;;;5948717;24;20013;-71
2023/05/18 11:00:50;;;;;;;1999.90;999.90;;;;;;;;;;5951655;24;20004;-71
2023/05/18 11:03:18;;;;;;;1999.90;999.90;;;;;;;;;;5930753;24;20013;-72
2023/05/18 11:06:11;;;;;;;1999.90;999.90;;;;;;;;;;5952970;24;20423;-72
2023/05/18 11:08:47;;;;;;;1999.90;999.90;;;;;;;;;;5931820;24;20122;-73
2023/05/18 11:11:14;;;;;;;1999.90;999.90;;;;;;;;;;5951653;24;20009;-73
2023/05/18 11:13:45;;;;;;;1999.90;999.90;;;;;;;;;;5974083;23;20015;-73
2023/05/18 11:16:11;;;;;;;1999.90;999.90;;;;;;;;;;6038445;23;20438;-71
2023/05/18 11:18:37;;;;;;;1999.90;999.90;;;;;;;;;;6097680;23;20010;-70
2023/05/18 11:21:04;;;;;;;1999.90;999.90;;;;;;;;;;6097360;23;20065;-71
2023/05/18 11:23:33;;;;;;;1999.90;999.90;;;;;;;;;;6095133;23;20017;-70
2023/05/18 11:26:01;;;;;;;1999.90;999.90;;;;;;;;;;6097492;23;20002;-66
2023/05/18 11:28:28;;;;;;;1999.90;999.90;;;;;;;;;;6098098;23;20084;-71
2023/05/18 11:30:55;;;;;;;1999.90;999.90;;;;;;;;;;6071832;23;20093;-72
2023/05/18 11:33:23;;;;;;;1999.90;999.90;;;;;;;;;;6098120;23;20007;-71
2023/05/18 11:36:07;;;;;;;1999.90;999.90;;;;;;;;;;6096176;23;20010;-71
2023/05/18 11:39:01;;;;;;;1999.90;999.90;;;;;;;;;;6093652;23;20015;-68
2023/05/18 11:44:38;;;;;;;1999.90;999.90;;;;;;;;;;6015324;23;20026;-70
2023/05/18 11:50:17;;;;;;;1999.90;999.90;;;;;;;;;;6098106;23;20323;-71
2023/05/18 11:52:58;;;;;;;1999.90;999.90;;;;;;;;;;6097002;23;20010;-70
2023/05/18 11:55:53;;;;;;;1999.90;999.90;;;;;;;;;;6129538;23;20022;-69
2023/05/18 11:58:20;;;;;;;1999.90;999.90;;;;;;;;;;6133788;23;20009;-67
2023/05/18 12:00:51;;;;;;;1999.90;999.90;;;;;;;;;;6129848;23;20009;-69
2023/05/18 12:06:08;;;;;;;1999.90;999.90;;;;;;;;;;6156022;23;20473;-69
2023/05/18 12:09:03;;;;;;;1999.90;999.90;;;;;;;;;;6155855;23;20006;-70
2023/05/18 12:11:31;;;;;;;1999.90;999.90;;;;;;;;;;6156685;23;20422;-73
2023/05/18 12:14:15;;;;;;;1999.90;999.90;;;;;;;;;;6130339;23;20032;-72
2023/05/18 12:16:56;;;;;;;1999.90;999.90;;;;;;;;;;6130357;23;20010;-70
2023/05/18 12:19:23;;;;;;;1999.90;999.90;;;;;;;;;;6130784;23;20029;-74
2023/05/18 12:21:53;;;;;;;1999.90;999.90;;;;;;;;;;6154827;23;20367;-73
2023/05/18 12:27:18;;;;;;;;;;;;;;;;;;;;;
2023/05/18 12:32:39;;;;;;;1999.90;999.90;;;;;;;;;;6157458;23;20485;-71
2023/05/18 12:35:12;;;;;;;1999.90;999.90;;;;;;;;;;6094534;23;20126;-72
2023/05/18 12:41:15;;;;;;;1999.90;999.90;;;;;;;;;;6069282;23;20071;-72
2023/05/18 12:43:44;;;;;;;1999.90;999.90;;;;;;;;;;6106336;23;20029;-70
2023/05/18 12:46:10;;;;;;;1999.90;999.90;;;;;;;;;;6154064;23;20334;-69
2023/05/18 12:48:37;;;;;;;1999.90;999.90;;;;;;;;;;6153730;23;20020;-70
2023/05/18 12:51:04;;;;;;;1999.90;999.90;;;;;;;;;;6153323;23;19997;-69
2023/05/18 12:53:42;;;;;;;1999.90;999.90;;;;;;;;;;6153618;23;20009;-71
2023/05/18 12:56:10;;;;;;;1999.90;999.90;;;;;;;;;;6153169;23;20457;-71
2023/05/18 12:58:36;;;;;;;1999.90;999.90;;;;;;;;;;6153567;23;20021;-71
2023/05/18 13:01:09;;;;;;;1999.90;999.90;;;;;;;;;;6152902;23;20002;-71
2023/05/18 13:03:39;;;;;;;1999.90;999.90;;;;;;;;;;6151932;23;20044;-71
2023/05/18 13:06:06;;;;;;;1999.90;999.90;;;;;;;;;;6153388;23;20055;-72
2023/05/18 13:08:32;;;;;;;1999.90;999.90;;;;;;;;;;6153201;23;20430;-70
2023/05/18 13:11:06;;;;;;;1999.90;999.90;;;;;;;;;;6153169;23;20004;-71
2023/05/18 13:13:32;;;;;;;1999.90;999.90;;;;;;;;;;6152786;23;20010;-69
2023/05/18 13:15:58;;;;;;;1999.90;999.90;;;;;;;;;;6152855;23;20005;-72
2023/05/18 13:18:25;;;;;;;1999.90;999.90;;;;;;;;;;6153068;23;20006;-70
2023/05/18 13:20:52;;;;;;;1999.90;999.90;;;;;;;;;;6152698;23;20036;-71
2023/05/18 13:23:20;;;;;;;1999.90;999.90;;;;;;;;;;6152857;23;20060;-69
2023/05/18 13:25:46;;;;;;;1999.90;999.90;;;;;;;;;;6151513;23;20077;-64
2023/05/18 13:28:13;;;;;;;1999.90;999.90;;;;;;;;;;6150747;23;20407;-70
2023/05/18 13:30:40;;;;;;;1999.90;999.90;;;;;;;;;;6152763;23;20033;-71
2023/05/18 13:33:07;;;;;;;1999.90;999.90;;;;;;;;;;6152617;23;20009;-68
2023/05/18 13:35:33;;;;;;;1999.90;999.90;;;;;;;;;;6152716;23;20012;-71
2023/05/18 13:37:59;;;;;;;1999.90;999.90;;;;;;;;;;6152403;23;20059;-73
2023/05/18 13:40:25;;;;;;;1999.90;999.90;;;;;;;;;;6151833;23;20001;-72
2023/05/18 13:42:52;;;;;;;1999.90;999.90;;;;;;;;;;6150620;23;20021;-76
2023/05/18 13:45:20;;;;;;;1999.90;999.90;;;;;;;;;;6152763;23;20008;-65
2023/05/18 13:47:52;;;;;;;1999.90;999.90;;;;;;;;;;6152952;23;20109;-74
2023/05/18 13:50:19;;;;;;;1999.90;999.90;;;;;;;;;;6152847;23;20005;-71
2023/05/18 13:52:46;;;;;;;1999.90;999.90;;;;;;;;;;6153070;23;20347;-74
2023/05/18 13:55:12;;;;;;;1999.90;999.90;;;;;;;;;;6152744;23;20033;-69
2023/05/18 13:57:39;;;;;;;1999.90;999.90;;;;;;;;;;6152873;23;20004;-68
2023/05/18 14:00:11;;;;;;;1999.90;999.90;;;;;;;;;;6152915;23;20006;-68
2023/05/18 14:02:37;;;;;;;1999.90;999.90;;;;;;;;;;6152898;23;20012;-72
2023/05/18 14:05:04;;;;;;;1999.90;999.90;;;;;;;;;;6152666;23;20006;-76
2023/05/18 14:07:31;;;;;;;1999.90;999.90;;;;;;;;;;6151776;23;20036;-75
2023/05/18 14:09:57;;;;;;;1999.90;999.90;;;;;;;;;;6152672;23;20335;-75
2023/05/18 14:12:23;;;;;;;1999.90;999.90;;;;;;;;;;6152516;23;20370;-72
2023/05/18 14:14:49;;;;;;;1999.90;999.90;;;;;;;;;;6150759;23;20508;-72
2023/05/18 14:17:15;;;;;;;1999.90;999.90;;;;;;;;;;6152367;23;20036;-73
2023/05/18 14:19:41;;;;;;;1999.90;999.90;;;;;;;;;;6152988;23;20010;-71
2023/05/18 14:22:07;;;;;;;1999.90;999.90;;;;;;;;;;6152915;23;20024;-71
2023/05/18 14:24:33;;;;;;;1999.90;999.90;;;;;;;;;;6152686;23;20021;-68
2023/05/18 14:26:59;;;;;;;1999.90;999.90;;;;;;;;;;6151103;23;20733;-69
2023/05/18 14:29:25;;;;;;;1999.90;999.90;;;;;;;;;;6152531;23;20008;-72
2023/05/18 14:31:51;;;;;;;1999.90;999.90;;;;;;;;;;6152307;23;20025;-70
2023/05/18 14:34:17;;;;;;;1999.90;999.90;;;;;;;;;;6153021;23;20001;-72
2023/05/18 14:36:43;;;;;;;1999.90;999.90;;;;;;;;;;6152538;23;20481;-67
2023/05/18 14:39:09;;;;;;;1999.90;999.90;;;;;;;;;;6152916;23;20068;-72
2023/05/18 14:41:35;;;;;;;1999.90;999.90;;;;;;;;;;6152695;23;20001;-72
2023/05/18 14:44:07;;;;;;;1999.90;999.90;;;;;;;;;;6199027;23;20433;-72
2023/05/18 14:46:33;;;;;;;1999.90;999.90;;;;;;;;;;6212120;23;20009;-73
2023/05/18 14:48:59;;;;;;;1999.90;999.90;;;;;;;;;;6212746;23;20005;-72
2023/05/18 14:51:25;;;;;;;1999.90;999.90;;;;;;;;;;6212587;23;20490;-72
2023/05/18 14:53:51;;;;;;;1999.90;999.90;;;;;;;;;;6212626;23;20008;-71
2023/05/18 14:56:17;;;;;;;1999.90;999.90;;;;;;;;;;6212700;23;20005;-71
2023/05/18 14:58:43;;;;;;;1999.90;999.90;;;;;;;;;;6185586;23;20009;-71
2023/05/18 15:01:10;;;;;;;1999.90;999.90;;;;;;;;;;6212769;23;20001;-72
2023/05/18 15:03:36;;;;;;;1999.90;999.90;;;;;;;;;;6212147;23;20444;-71
2023/05/18 15:06:02;;;;;;;1999.90;999.90;;;;;;;;;;6212685;23;20509;-70
2023/05/18 15:08:28;;;;;;;1999.90;999.90;;;;;;;;;;6212330;23;20087;-68
2023/05/18 15:10:54;;;;;;;1999.90;999.90;;;;;;;;;;6212662;23;20029;-72
2023/05/18 15:13:20;;;;;;;1999.90;999.90;;;;;;;;;;6212493;23;20603;-70
2023/05/18 15:15:46;;;;;;;1999.90;999.90;;;;;;;;;;6211427;23;20016;-71
2023/05/18 15:18:12;;;;;;;1999.90;999.90;;;;;;;;;;6211915;23;20008;-71
2023/05/18 15:20:42;;;;;;;1999.90;999.90;;;;;;;;;;6213708;23;20001;-68
2023/05/18 15:23:08;;;;;;;1999.90;999.90;;;;;;;;;;6213327;23;19997;-68
2023/05/18 15:25:34;;;;;;;1999.90;999.90;;;;;;;;;;6213902;23;20001;-70
2023/05/18 15:28:00;;;;;;;1999.90;999.90;;;;;;;;;;6212994;23;20013;-71
2023/05/18 15:30:28;;;;;;;1999.90;999.90;;;;;;;;;;6212979;23;20079;-66
2023/05/18 15:32:54;;;;;;;1999.90;999.90;;;;;;;;;;6213474;23;20001;-69
2023/05/18 15:35:21;;;;;;;1999.90;999.90;;;;;;;;;;6214040;23;20039;-68
2023/05/18 15:37:48;;;;;;;1999.90;999.90;;;;;;;;;;6213200;23;20020;-71
2023/05/18 15:40:16;;;;;;;1999.90;999.90;;;;;;;;;;6214371;23;20007;-70
2023/05/18 15:42:42;;;;;;;1999.90;999.90;;;;;;;;;;6212921;23;20534;-68
2023/05/18 15:45:09;;;;;;;1999.90;999.90;;;;;;;;;;6186230;23;20005;-71
2023/05/18 15:47:35;;;;;;;1999.90;999.90;;;;;;;;;;6213702;23;20018;-71
2023/05/18 15:50:01;;;;;;;1999.90;999.90;;;;;;;;;;6213305;23;20028;-65
2023/05/18 15:52:27;;;;;;;1999.90;999.90;;;;;;;;;;6213282;23;20011;-70
2023/05/18 15:54:53;;;;;;;1999.90;999.90;;;;;;;;;;6214117;23;20008;-70
2023/05/18 15:57:19;;;;;;;1999.90;999.90;;;;;;;;;;6214145;23;20005;-71
2023/05/18 15:59:45;;;;;;;1999.90;999.90;;;;;;;;;;6214247;23;20012;-70
2023/05/18 16:02:11;;;;;;;1999.90;999.90;;;;;;;;;;6213213;23;20019;-69
2023/05/18 16:04:37;;;;;;;1999.90;999.90;;;;;;;;;;6186379;23;20329;-67
2023/05/18 16:07:03;;;;;;;1999.90;999.90;;;;;;;;;;6213643;23;20524;-70
2023/05/18 16:09:29;;;;;;;1999.90;999.90;;;;;;;;;;6214102;23;20080;-71
2023/05/18 16:11:55;;;;;;;1999.90;999.90;;;;;;;;;;6213569;23;20421;-70
2023/05/18 16:14:21;;;;;;;1999.90;999.90;;;;;;;;;;6213699;23;20513;-70
2023/05/18 16:16:47;;;;;;;1999.90;999.90;;;;;;;;;;6186238;23;20011;-71
2023/05/18 16:19:13;;;;;;;1999.90;999.90;;;;;;;;;;6186748;23;20100;-71
2023/05/18 16:21:39;;;;;;;1999.90;999.90;;;;;;;;;;6213209;23;20492;-70
2023/05/18 16:24:05;;;;;;;1999.90;999.90;;;;;;;;;;6187120;23;20008;-66
2023/05/18 16:26:32;;;;;;;1999.90;999.90;;;;;;;;;;6213322;23;20058;-68
2023/05/18 16:28:58;;;;;;;1999.90;999.90;;;;;;;;;;6186943;23;20341;-70
2023/05/18 16:31:24;;;;;;;1999.90;999.90;;;;;;;;;;6186479;23;20329;-70
2023/05/18 16:33:50;;;;;;;1999.90;999.90;;;;;;;;;;6213349;23;20425;-71
2023/05/18 16:36:16;;;;;;;1999.90;999.90;;;;;;;;;;6213713;23;20432;-69
2023/05/18 16:38:42;;;;;;;1999.90;999.90;;;;;;;;;;6213080;23;20360;-69
2023/05/18 16:41:09;;;;;;;1999.90;999.90;;;;;;;;;;6213440;23;20441;-68
2023/05/18 16:43:35;;;;;;;1999.90;999.90;;;;;;;;;;6212422;23;20441;-70
2023/05/18 16:46:02;;;;;;;1999.90;999.90;;;;;;;;;;6213631;23;20000;-70
2023/05/18 16:48:28;;;;;;;1999.90;999.90;;;;;;;;;;6212863;23;20021;-70
2023/05/18 16:50:54;;;;;;;1999.90;999.90;;;;;;;;;;6213408;23;19997;-71
2023/05/18 16:53:20;;;;;;;1999.90;999.90;;;;;;;;;;6213302;23;20028;-70
2023/05/18 16:55:46;;;;;;;1999.90;999.90;;;;;;;;;;6213552;23;20051;-66
2023/05/18 16:58:12;;;;;;;1999.90;999.90;;;;;;;;;;6212589;23;20004;-71
2023/05/18 17:00:38;;;;;;;1999.90;999.90;;;;;;;;;;6213130;23;20012;-71
2023/05/18 17:03:04;;;;;;;1999.90;999.90;;;;;;;;;;6213388;23;20005;-70
2023/05/18 17:05:30;;;;;;;1999.90;999.90;;;;;;;;;;6213936;23;20432;-70
2023/05/18 17:07:56;;;;;;;1999.90;999.90;;;;;;;;;;6213121;23;20068;-67
2023/05/18 17:10:22;;;;;;;1999.90;999.90;;;;;;;;;;6213037;23;20000;-72
2023/05/18 17:12:48;;;;;;;1999.90;999.90;;;;;;;;;;6212394;23;20039;-72
2023/05/18 17:15:15;;;;;;;1999.90;999.90;;;;;;;;;;6213355;23;20008;-71
2023/05/18 17:17:41;;;;;;;1999.90;999.90;;;;;;;;;;6212999;23;20496;-72
2023/05/18 17:20:08;;;;;;;1999.90;999.90;;;;;;;;;;6213214;23;19996;-71
2023/05/18 17:22:34;;;;;;;1999.90;999.90;;;;;;;;;;6213341;23;20000;-71
2023/05/18 17:25:01;;;;;;;1999.90;999.90;;;;;;;;;;6186354;23;20087;-71
2023/05/18 17:27:27;;;;;;;1999.90;999.90;;;;;;;;;;6213256;23;20004;-68
2023/05/18 17:29:53;;;;;;;1999.90;999.90;;;;;;;;;;6186620;23;20402;-68
2023/05/18 17:32:19;;;;;;;1999.90;999.90;;;;;;;;;;6213278;23;20012;-72
2023/05/18 17:34:45;;;;;;;1999.90;999.90;;;;;;;;;;6213121;23;20009;-69
2023/05/18 17:37:11;;;;;;;1999.90;999.90;;;;;;;;;;6213022;23;20039;-71
2023/05/18 17:39:38;;;;;;;1999.90;999.90;;;;;;;;;;6212580;23;20058;-70
2023/05/18 17:42:04;;;;;;;1999.90;999.90;;;;;;;;;;6211897;23;20009;-71
2023/05/18 17:44:30;;;;;;;1999.90;999.90;;;;;;;;;;6212121;23;20017;-70
2023/05/18 17:46:57;;;;;;;1999.90;999.90;;;;;;;;;;6212685;23;20004;-71
2023/05/18 17:49:23;;;;;;;1999.90;999.90;;;;;;;;;;6212468;23;20016;-69
2023/05/18 17:51:50;;;;;;;1999.90;999.90;;;;;;;;;;6211886;23;20370;-71
2023/05/18 17:54:16;;;;;;;1999.90;999.90;;;;;;;;;;6213137;23;20011;-69
2023/05/18 17:56:42;;;;;;;1999.90;999.90;;;;;;;;;;6211805;23;20004;-71
2023/05/18 17:59:08;;;;;;;1999.90;999.90;;;;;;;;;;6212185;23;20005;-69
2023/05/18 18:01:34;;;;;;;1999.90;999.90;;;;;;;;;;6212442;23;20001;-69
2023/05/18 18:04:00;;;;;;;1999.90;999.90;;;;;;;;;;6211874;23;20610;-70
2023/05/18 18:06:27;;;;;;;1999.90;999.90;;;;;;;;;;6211905;23;20008;-71
2023/05/18 18:08:54;;;;;;;1999.90;999.90;;;;;;;;;;6211910;23;20444;-66
2023/05/18 18:11:20;;;;;;;1999.90;999.90;;;;;;;;;;6212511;23;20020;-70
2023/05/18 18:13:47;;;;;;;1999.90;999.90;;;;;;;;;;6212392;23;20078;-68
2023/05/18 18:16:13;;;;;;;1999.90;999.90;;;;;;;;;;6212721;23;20055;-70
2023/05/18 18:18:39;;;;;;;1999.90;999.90;;;;;;;;;;6212174;23;20360;-70
2023/05/18 18:21:05;;;;;;;1999.90;999.90;;;;;;;;;;6212208;23;20015;-68
2023/05/18 18:23:32;;;;;;;1999.90;999.90;;;;;;;;;;6185500;23;20009;-69
2023/05/18 18:26:01;;;;;;;1999.90;999.90;;;;;;;;;;6211704;23;20004;-68
2023/05/18 18:28:28;;;;;;;1999.90;999.90;;;;;;;;;;6211483;23;20036;-71
2023/05/18 18:30:54;;;;;;;1999.90;999.90;;;;;;;;;;6210781;23;20024;-68
2023/05/18 18:33:20;;;;;;;1999.90;999.90;;;;;;;;;;6211487;23;20000;-70
2023/05/18 18:35:47;;;;;;;1999.90;999.90;;;;;;;;;;6212212;23;20001;-70
2023/05/18 18:38:13;;;;;;;1999.90;999.90;;;;;;;;;;6210644;23;20031;-71
2023/05/18 18:40:40;;;;;;;1999.90;999.90;;;;;;;;;;6209100;23;20058;-68
2023/05/18 18:43:06;;;;;;;1999.90;999.90;;;;;;;;;;6209397;23;20035;-67
2023/05/18 18:45:32;;;;;;;1999.90;999.90;;;;;;;;;;6210327;23;20076;-67
2023/05/18 18:47:59;;;;;;;1999.90;999.90;;;;;;;;;;6211277;23;20091;-65
2023/05/18 18:50:25;;;;;;;1999.90;999.90;;;;;;;;;;6211952;23;20012;-69
2023/05/18 18:52:51;;;;;;;1999.90;999.90;;;;;;;;;;6212541;23;20078;-67
2023/05/18 18:55:17;;;;;;;1999.90;999.90;;;;;;;;;;6213092;23;19996;-70
2023/05/18 18:57:44;;;;;;;1999.90;999.90;;;;;;;;;;6213354;23;20004;-68